Latest Weather Observations for Broome Port

IDW60801

Issued at 4:32 pm WST Tuesday 7 July 2015 (issued every 30 minutes, with the page automatically refreshed every 10 minutes)

About weather observations | Map of weather stations | Latest weather observations for WA | Other Formats
Station Details ID: 003102 Name: BROOME NTC AWS Lat: -18.00 Lon: 122.22 Height: 0.0 m
Data from the previous 72 hours. | See also: Recent months for locations in Western Australia
Date/Time
WST
Temp
°C
App
Temp
°C
Dew
Point
Rel
Hum
%
Delta-T
°C
Wind Press
QNH
hPa
Press
MSL
hPa
Rain
since 9 am
mm
Dir
 
Spd
km/h
Gust
km/h
Spd
kts
Gust
kts
07/04:30pm 24.0 - - - - WSW 22 26 12 14 1010.6 1010.6 -
07/04:00pm 24.9 - - - - WSW 19 20 10 11 1010.5 1010.5 -
07/03:30pm 24.3 - - - - WSW 19 20 10 11 1010.4 1010.4 -
07/03:00pm 25.0 - - - - WSW 19 20 10 11 1010.4 1010.4 -
07/02:30pm 24.9 - - - - WSW 17 20 9 11 1010.5 1010.5 -
07/02:00pm 23.8 - - - - SW 17 20 9 11 1010.8 1010.8 -
07/01:30pm 26.8 - - - - SSW 11 13 6 7 1011.2 1011.2 -
07/01:00pm 25.3 - - - - SSW 11 13 6 7 1011.7 1011.7 -
07/12:30pm 25.1 - - - - S 9 13 5 7 1012.1 1012.1 -
07/12:00pm 25.3 - - - - SSE 7 9 4 5 1012.6 1012.6 -
07/11:30am 24.5 - - - - SSE 7 9 4 5 1013.1 1013.1 -
07/11:00am 24.1 - - - - ESE 7 7 4 4 1013.4 1013.4 -
07/10:30am 22.4 - - - - SE 9 11 5 6 1013.8 1013.8 -
07/10:00am 20.8 - - - - ESE 11 15 6 8 1014.1 1014.1 -
07/09:30am 20.1 - - - - ESE 17 20 9 11 1014.4 1014.4 -
07/09:00am 19.3 - - - - ESE 17 19 9 10 1014.5 1014.5 -
07/08:30am 18.8 - - - - ESE 19 22 10 12 1014.3 1014.3 -
07/08:00am 18.6 - - - - ESE 19 22 10 12 1014.1 1014.1 -
07/07:30am 18.2 - - - - ESE 17 19 9 10 1013.8 1013.8 -
07/07:00am 18.3 - - - - ESE 15 19 8 10 1013.7 1013.7 -
07/06:30am 18.7 - - - - ESE 17 20 9 11 1013.5 1013.5 -
07/06:00am 19.4 - - - - ESE 17 20 9 11 1013.2 1013.2 -
07/05:30am 18.9 - - - - ESE 15 17 8 9 1013.0 1013.0 -
07/05:00am 18.7 - - - - ESE 13 15 7 8 1012.9 1012.9 -
07/04:30am 18.7 - - - - ESE 15 17 8 9 1012.7 1012.7 -
07/04:00am 20.5 - - - - SE 20 22 11 12 1012.6 1012.6 -
07/03:30am 21.3 - - - - SE 17 19 9 10 1012.6 1012.6 -
07/03:00am 22.0 - - - - SE 17 22 9 12 1012.6 1012.6 -
07/02:30am 21.5 - - - - SE 17 19 9 10 1012.6 1012.6 -
07/02:00am 20.8 - - - - SSE 13 15 7 8 1013.0 1013.0 -
07/01:30am 20.5 - - - - S 13 15 7 8 1013.0 1013.0 -
07/01:00am 20.7 - - - - S 9 11 5 6 1013.3 1013.3 -
07/12:30am 21.0 - - - - S 13 17 7 9 1013.3 1013.3 -
07/12:00am 21.0 - - - - S 17 20 9 11 1013.3 1013.3 -
 
Date/Time
WST
Temp
°C
App
Temp
°C
Dew
Point
Rel
Hum
%
Delta-T
°C
Wind Press
QNH
hPa
Press
MSL
hPa
Rain
since 9 am
mm
Dir
 
Spd
km/h
Gust
km/h
Spd
kts
Gust
kts
06/11:30pm 21.1 - - - - SSW 19 24 10 13 1013.3 1013.3 -
06/11:00pm 21.3 - - - - SSW 15 19 8 10 1013.6 1013.6 -
06/10:30pm 21.1 - - - - SSW 15 17 8 9 1013.7 1013.7 -
06/10:00pm 21.3 - - - - SSW 17 20 9 11 1013.8 1013.8 -
06/09:30pm 22.1 - - - - SW 17 22 9 12 1013.7 1013.7 -
06/09:00pm 22.3 - - - - SSW 20 24 11 13 1013.8 1013.8 -
06/08:30pm 22.7 - - - - SW 17 22 9 12 1013.7 1013.7 -
06/08:00pm 23.2 - - - - WSW 15 19 8 10 1013.6 1013.6 -
06/07:30pm 24.9 - - - - W 17 22 9 12 1013.3 1013.3 -
06/07:00pm 24.8 - - - - W 17 20 9 11 1013.0 1013.0 -
06/06:30pm 23.7 - - - - W 17 20 9 11 1012.9 1012.9 -
06/06:00pm 23.6 - - - - W 15 19 8 10 1012.7 1012.7 -
06/05:30pm 24.2 - - - - WNW 15 17 8 9 1012.4 1012.4 -
06/05:00pm 23.4 - - - - WSW 17 20 9 11 1012.0 1012.0 -
06/04:30pm 24.1 - - - - WSW 17 19 9 10 1011.7 1011.7 -
06/04:00pm 24.9 - - - - WSW 17 19 9 10 1011.8 1011.8 -
06/03:30pm 24.6 - - - - WSW 15 17 8 9 1011.8 1011.8 -
06/03:00pm 25.4 - - - - W 15 19 8 10 1011.9 1011.9 -
06/02:30pm 26.2 - - - - SSW 9 13 5 7 1011.9 1011.9 -
06/02:00pm 25.4 - - - - S 11 13 6 7 1012.1 1012.1 -
06/01:30pm 24.3 - - - - SSW 13 13 7 7 1012.3 1012.3 -
06/01:00pm 25.1 - - - - SSE 9 11 5 6 1012.7 1012.7 -
06/12:30pm 24.9 - - - - S 4 7 2 4 1013.2 1013.2 -
06/12:00pm 24.5 - - - - SSW 4 9 2 5 1013.7 1013.7 -
06/11:30am 23.4 - - - - S 6 9 3 5 1014.3 1014.3 -
06/11:00am 23.0 - - - - SE 6 9 3 5 1014.8 1014.8 -
06/10:30am 21.2 - - - - SE 2 7 1 4 1015.1 1015.1 -
06/10:00am 19.5 - - - - ESE 7 11 4 6 1015.5 1015.5 -
06/09:30am 18.7 - - - - E 7 13 4 7 1015.7 1015.7 -
06/09:00am 17.6 - - - - ESE 15 20 8 11 1015.6 1015.6 -
06/08:30am 17.4 - - - - ESE 17 24 9 13 1015.5 1015.5 -
06/08:00am 17.0 - - - - SE 15 19 8 10 1015.4 1015.4 -
06/07:30am 16.9 - - - - ESE 15 20 8 11 1015.1 1015.1 -
06/07:00am 17.0 - - - - ESE 17 20 9 11 1014.9 1014.9 -
06/06:30am 17.0 - - - - ESE 15 20 8 11 1014.6 1014.6 -
06/06:00am 16.9 - - - - ESE 13 26 7 14 1014.6 1014.6 -
06/05:30am 18.3 - - - - SE 24 30 13 16 1014.3 1014.3 -
06/05:00am 17.9 - - - - SE 24 30 13 16 1014.1 1014.1 -
06/04:30am 18.5 - - - - SE 19 22 10 12 1014.0 1014.0 -
06/04:00am 19.0 - - - - SE 20 28 11 15 1013.9 1013.9 -
06/03:30am 19.5 - - - - SSE 15 28 8 15 1013.9 1013.9 -
06/03:00am 19.6 - - - - SE 20 32 11 17 1013.8 1013.8 -
06/02:30am 19.6 - - - - SE 7 20 4 11 1013.7 1013.7 -
06/02:00am 19.9 - - - - ESE 6 17 3 9 1013.9 1013.9 -

Other Formats:

Comma delimited format used in spreadsheet applications
http://www.bom.gov.au/fwo/IDW60801/IDW60801.95202.axf

JavaScript Object Notation format (JSON) in row-major order
http://www.bom.gov.au/fwo/IDW60801/IDW60801.95202.json